Time;durP1;ratioP1;P1;durP2;ratioP2;P2;SDS_P1;SDS_P2;PMS_P1;PMS_P2;Temp;Humidity;BMP_temperature;BMP_pressure;BME280_temperature;BME280_humidity;BME280_pressure;Samples;Min_cycle;Max_cycle;Signal;HPM_P1;HPM_P2
2022/03/26 00:00:27;;;;;;;35.33;21.43;;;;;;;;;;5071981;28;20279;-73
2022/03/26 00:02:56;;;;;;;30.00;20.60;;;;;;;;;;5071578;28;20207;-72
2022/03/26 00:05:24;;;;;;;30.67;20.47;;;;;;;;;;5071606;28;20682;-73
2022/03/26 00:07:53;;;;;;;30.67;20.10;;;;;;;;;;5072569;28;20222;-73
2022/03/26 00:10:21;;;;;;;32.60;19.73;;;;;;;;;;5070306;28;20210;-73
2022/03/26 00:12:52;;;;;;;32.43;20.03;;;;;;;;;;5072555;28;20217;-73
2022/03/26 00:15:21;;;;;;;31.30;20.90;;;;;;;;;;5071426;28;20200;-73
2022/03/26 00:17:51;;;;;;;28.47;18.70;;;;;;;;;;5072031;28;20271;-73
2022/03/26 00:20:19;;;;;;;26.57;18.60;;;;;;;;;;5071820;28;20234;-73
2022/03/26 00:22:47;;;;;;;28.83;18.47;;;;;;;;;;5072443;28;20216;-73
2022/03/26 00:25:17;;;;;;;29.53;18.40;;;;;;;;;;5070348;28;20222;-73
2022/03/26 00:27:45;;;;;;;28.40;18.63;;;;;;;;;;5072348;28;20223;-73
2022/03/26 00:30:14;;;;;;;29.33;18.33;;;;;;;;;;5070758;28;20261;-73
2022/03/26 00:32:42;;;;;;;31.73;19.67;;;;;;;;;;5075972;28;20209;-73
2022/03/26 00:35:12;;;;;;;35.20;23.00;;;;;;;;;;5075835;28;20257;-73
2022/03/26 00:37:41;;;;;;;36.07;23.07;;;;;;;;;;5075888;28;20224;-73
2022/03/26 00:40:10;;;;;;;32.67;20.47;;;;;;;;;;5074234;28;20237;-73
2022/03/26 00:42:39;;;;;;;36.63;21.77;;;;;;;;;;5075762;28;20196;-73
2022/03/26 00:45:08;;;;;;;34.37;21.80;;;;;;;;;;5072274;28;20226;-73
2022/03/26 00:47:37;;;;;;;34.43;21.30;;;;;;;;;;5074991;28;20223;-73
2022/03/26 00:50:06;;;;;;;30.00;19.83;;;;;;;;;;5074193;28;20268;-73
2022/03/26 00:52:35;;;;;;;30.63;20.10;;;;;;;;;;5075315;28;20204;-73
2022/03/26 00:55:04;;;;;;;35.97;23.23;;;;;;;;;;5075490;28;20211;-73
2022/03/26 00:57:32;;;;;;;38.13;23.47;;;;;;;;;;5073306;28;20317;-73
2022/03/26 01:00:01;;;;;;;37.03;22.30;;;;;;;;;;5074380;28;20208;-73
2022/03/26 01:02:30;;;;;;;36.23;22.37;;;;;;;;;;5075558;28;20254;-73
2022/03/26 01:04:58;;;;;;;40.00;25.27;;;;;;;;;;5075685;28;20218;-73
2022/03/26 01:07:27;;;;;;;38.73;22.43;;;;;;;;;;5075434;28;20269;-73
2022/03/26 01:09:57;;;;;;;35.70;23.23;;;;;;;;;;5074766;28;20208;-73
2022/03/26 01:12:26;;;;;;;33.70;21.93;;;;;;;;;;5073581;28;20215;-73
2022/03/26 01:14:55;;;;;;;33.53;23.10;;;;;;;;;;5074193;28;20195;-73
2022/03/26 01:17:23;;;;;;;35.53;23.23;;;;;;;;;;5075108;28;20647;-73
2022/03/26 01:19:53;;;;;;;31.57;21.53;;;;;;;;;;5074057;28;20207;-73
2022/03/26 01:22:22;;;;;;;34.53;22.93;;;;;;;;;;5068259;28;20209;-73
2022/03/26 01:24:50;;;;;;;37.07;22.97;;;;;;;;;;5074314;28;20650;-74
2022/03/26 01:27:20;;;;;;;34.37;20.47;;;;;;;;;;5074046;28;20280;-73
2022/03/26 01:29:49;;;;;;;35.00;21.40;;;;;;;;;;5073494;28;20260;-73
2022/03/26 01:32:17;;;;;;;35.23;23.17;;;;;;;;;;5070421;28;20302;-73
2022/03/26 01:34:46;;;;;;;40.10;24.67;;;;;;;;;;5073991;28;20252;-73
2022/03/26 01:37:16;;;;;;;41.83;24.40;;;;;;;;;;5074590;28;20580;-73
2022/03/26 01:39:45;;;;;;;44.37;24.67;;;;;;;;;;5073890;28;20225;-73
2022/03/26 01:42:13;;;;;;;46.13;26.67;;;;;;;;;;5074013;28;20206;-73
2022/03/26 01:44:43;;;;;;;37.10;25.10;;;;;;;;;;5073994;28;20623;-73
2022/03/26 01:47:12;;;;;;;37.30;24.60;;;;;;;;;;5073729;28;20227;-73
2022/03/26 01:49:40;;;;;;;40.30;24.10;;;;;;;;;;5073879;28;20260;-73
2022/03/26 01:52:10;;;;;;;37.70;24.37;;;;;;;;;;5074857;28;20260;-73
2022/03/26 01:54:39;;;;;;;38.67;23.67;;;;;;;;;;5074343;28;20202;-74
2022/03/26 01:57:10;;;;;;;35.60;22.67;;;;;;;;;;5073382;28;20218;-73
2022/03/26 01:59:39;;;;;;;40.87;25.20;;;;;;;;;;5073456;28;20198;-74
2022/03/26 02:02:09;;;;;;;38.80;26.33;;;;;;;;;;5073528;28;20214;-73
2022/03/26 02:04:38;;;;;;;39.33;24.57;;;;;;;;;;5074198;28;20268;-73
2022/03/26 02:07:07;;;;;;;43.47;23.67;;;;;;;;;;5073129;28;20226;-73
2022/03/26 02:09:36;;;;;;;34.80;22.27;;;;;;;;;;5073934;28;20248;-73
2022/03/26 02:12:05;;;;;;;36.73;24.67;;;;;;;;;;5073278;28;20214;-73
2022/03/26 02:14:33;;;;;;;38.73;23.67;;;;;;;;;;5073452;28;20263;-73
2022/03/26 02:17:01;;;;;;;42.57;23.77;;;;;;;;;;5074293;28;20236;-73
2022/03/26 02:19:31;;;;;;;39.23;24.43;;;;;;;;;;5073641;28;20217;-73
2022/03/26 02:22:01;;;;;;;35.40;21.37;;;;;;;;;;5072699;28;20545;-73
2022/03/26 02:24:29;;;;;;;32.40;21.77;;;;;;;;;;5073538;28;20255;-73
2022/03/26 02:26:58;;;;;;;32.57;20.60;;;;;;;;;;5072081;28;20284;-73
2022/03/26 02:29:28;;;;;;;37.70;23.30;;;;;;;;;;5073143;28;20222;-73
2022/03/26 02:31:56;;;;;;;42.50;23.90;;;;;;;;;;5072935;28;20214;-73
2022/03/26 02:34:26;;;;;;;37.90;24.37;;;;;;;;;;5073738;28;20206;-73
2022/03/26 02:37:16;;;;;;;41.93;24.50;;;;;;;;;;5072885;28;20263;-73
2022/03/26 02:39:45;;;;;;;39.33;24.57;;;;;;;;;;5074138;28;20224;-73
2022/03/26 02:42:14;;;;;;;35.23;23.30;;;;;;;;;;5072105;28;20206;-73
2022/03/26 02:44:42;;;;;;;41.63;25.30;;;;;;;;;;5073446;28;20220;-73
2022/03/26 02:47:11;;;;;;;36.90;24.47;;;;;;;;;;5072800;28;20287;-73
2022/03/26 02:49:40;;;;;;;37.93;22.93;;;;;;;;;;5073432;28;20264;-73
2022/03/26 02:52:09;;;;;;;43.17;25.20;;;;;;;;;;5072427;28;20574;-73
2022/03/26 02:54:38;;;;;;;40.60;26.20;;;;;;;;;;5073298;28;20194;-73
2022/03/26 02:57:07;;;;;;;42.23;25.60;;;;;;;;;;5072679;28;20217;-73
2022/03/26 02:59:35;;;;;;;42.20;24.83;;;;;;;;;;5072981;28;20669;-73
2022/03/26 03:02:05;;;;;;;40.90;24.73;;;;;;;;;;5072722;28;20211;-73
2022/03/26 03:04:34;;;;;;;43.07;24.80;;;;;;;;;;5072580;28;20228;-73
2022/03/26 03:07:03;;;;;;;49.63;25.90;;;;;;;;;;5073361;28;20307;-73
2022/03/26 03:09:31;;;;;;;39.97;24.23;;;;;;;;;;5073153;28;20206;-73
2022/03/26 03:12:01;;;;;;;37.17;23.20;;;;;;;;;;5072560;28;20263;-73
2022/03/26 03:14:30;;;;;;;41.10;23.40;;;;;;;;;;5072285;28;20228;-73
2022/03/26 03:16:58;;;;;;;39.87;24.03;;;;;;;;;;5073280;28;20288;-73
2022/03/26 03:19:27;;;;;;;36.17;22.83;;;;;;;;;;5073287;28;20240;-73
2022/03/26 03:21:55;;;;;;;37.80;23.27;;;;;;;;;;5072663;28;20209;-73
2022/03/26 03:24:24;;;;;;;39.07;23.07;;;;;;;;;;5072000;28;20610;-73
2022/03/26 03:26:52;;;;;;;37.83;23.27;;;;;;;;;;5072972;28;20233;-73
2022/03/26 03:29:22;;;;;;;40.33;22.50;;;;;;;;;;5073387;28;20212;-73
2022/03/26 03:31:51;;;;;;;39.23;23.40;;;;;;;;;;5072650;28;20263;-73
2022/03/26 03:34:19;;;;;;;37.43;23.57;;;;;;;;;;5073061;28;20266;-73
2022/03/26 03:36:48;;;;;;;37.93;22.73;;;;;;;;;;5072067;28;20222;-73
2022/03/26 03:39:16;;;;;;;37.70;24.17;;;;;;;;;;5072035;28;20204;-73
2022/03/26 03:41:45;;;;;;;40.27;23.50;;;;;;;;;;5071398;28;20281;-73
2022/03/26 03:44:13;;;;;;;39.03;23.23;;;;;;;;;;5072645;28;20233;-73
2022/03/26 03:46:43;;;;;;;39.63;24.00;;;;;;;;;;5071188;28;20225;-73
2022/03/26 03:49:11;;;;;;;37.40;23.57;;;;;;;;;;5073100;28;20294;-73
2022/03/26 03:51:40;;;;;;;37.60;22.47;;;;;;;;;;5072303;28;20205;-73
2022/03/26 03:54:08;;;;;;;39.53;23.20;;;;;;;;;;5072500;28;20208;-73
2022/03/26 03:56:36;;;;;;;38.93;24.30;;;;;;;;;;5072666;28;20766;-73
2022/03/26 03:59:05;;;;;;;41.10;23.20;;;;;;;;;;5072710;28;20204;-73
2022/03/26 04:01:33;;;;;;;43.60;25.47;;;;;;;;;;5070647;28;20262;-73
2022/03/26 04:04:03;;;;;;;41.20;24.77;;;;;;;;;;5072609;28;20212;-73
2022/03/26 04:06:32;;;;;;;40.70;23.00;;;;;;;;;;5073463;28;20746;-73
2022/03/26 04:09:00;;;;;;;36.33;22.57;;;;;;;;;;5076663;28;20196;-73
2022/03/26 04:11:29;;;;;;;39.87;22.53;;;;;;;;;;5076014;28;20226;-73
2022/03/26 04:13:57;;;;;;;36.17;23.10;;;;;;;;;;5076675;28;20219;-73
2022/03/26 04:16:26;;;;;;;36.87;23.33;;;;;;;;;;5075221;28;20226;-73
2022/03/26 04:18:54;;;;;;;40.93;24.13;;;;;;;;;;5076192;28;20211;-73
2022/03/26 04:21:24;;;;;;;39.10;23.30;;;;;;;;;;5075283;28;20210;-73
2022/03/26 04:23:52;;;;;;;45.50;24.83;;;;;;;;;;5076029;28;20643;-73
2022/03/26 04:26:21;;;;;;;42.27;25.73;;;;;;;;;;5076367;28;20225;-73
2022/03/26 04:28:49;;;;;;;40.03;24.20;;;;;;;;;;5076048;28;20208;-73
2022/03/26 04:31:17;;;;;;;42.07;24.47;;;;;;;;;;5075302;28;20204;-73
2022/03/26 04:33:46;;;;;;;38.37;23.73;;;;;;;;;;5075431;28;20207;-73
2022/03/26 04:36:14;;;;;;;39.53;23.83;;;;;;;;;;5074580;28;20213;-73
2022/03/26 04:38:44;;;;;;;39.37;23.73;;;;;;;;;;5076131;28;20284;-73
2022/03/26 04:41:14;;;;;;;43.03;25.43;;;;;;;;;;5075413;28;20205;-73
2022/03/26 04:43:42;;;;;;;41.60;25.13;;;;;;;;;;5075822;22;20229;-74
2022/03/26 04:46:10;;;;;;;43.60;25.17;;;;;;;;;;5015702;28;20234;-74
2022/03/26 04:48:39;;;;;;;44.10;25.83;;;;;;;;;;5015271;28;20214;-74
2022/03/26 04:51:07;;;;;;;42.57;24.70;;;;;;;;;;5016256;28;20660;-74
2022/03/26 04:53:36;;;;;;;42.37;25.07;;;;;;;;;;5015043;28;20667;-74
2022/03/26 04:56:06;;;;;;;39.40;23.70;;;;;;;;;;5014293;28;20291;-75
2022/03/26 04:58:34;;;;;;;36.37;23.47;;;;;;;;;;5015723;28;20254;-74
2022/03/26 05:01:03;;;;;;;40.73;24.43;;;;;;;;;;5015879;28;20212;-75
2022/03/26 05:03:32;;;;;;;36.87;24.30;;;;;;;;;;5014681;28;20211;-75
2022/03/26 05:06:00;;;;;;;42.35;25.25;;;;;;;;;;5015529;28;20217;-75
2022/03/26 05:08:29;;;;;;;38.43;24.00;;;;;;;;;;5015600;28;20203;-75
2022/03/26 05:10:57;;;;;;;42.30;24.50;;;;;;;;;;5016081;28;20241;-74
2022/03/26 05:13:27;;;;;;;42.83;23.33;;;;;;;;;;5014327;28;20293;-74
2022/03/26 05:15:56;;;;;;;40.63;24.20;;;;;;;;;;5013871;28;20200;-75
2022/03/26 05:18:26;;;;;;;38.23;24.80;;;;;;;;;;5014453;28;20676;-75
2022/03/26 05:20:56;;;;;;;39.20;24.43;;;;;;;;;;5015500;28;20200;-75
2022/03/26 05:23:25;;;;;;;38.23;23.77;;;;;;;;;;5014118;28;20214;-75
2022/03/26 05:25:53;;;;;;;40.93;25.10;;;;;;;;;;5014366;28;20210;-75
2022/03/26 05:28:22;;;;;;;39.37;25.60;;;;;;;;;;5014394;28;20238;-75
2022/03/26 05:30:52;;;;;;;46.03;26.83;;;;;;;;;;5015355;28;20263;-75
2022/03/26 05:33:21;;;;;;;46.63;25.90;;;;;;;;;;5014345;28;20666;-75
2022/03/26 05:35:49;;;;;;;43.60;26.40;;;;;;;;;;5012842;28;20251;-74
2022/03/26 05:38:18;;;;;;;38.97;24.97;;;;;;;;;;5015041;28;20281;-75
2022/03/26 05:40:46;;;;;;;45.27;25.87;;;;;;;;;;5015002;28;20206;-75
2022/03/26 05:43:15;;;;;;;45.37;26.53;;;;;;;;;;5012981;28;20220;-75
2022/03/26 05:45:43;;;;;;;42.73;26.57;;;;;;;;;;5010891;28;20573;-75
2022/03/26 05:48:13;;;;;;;42.47;25.60;;;;;;;;;;5014867;28;20286;-74
2022/03/26 05:50:41;;;;;;;45.17;27.30;;;;;;;;;;5014732;28;20193;-75
2022/03/26 05:53:10;;;;;;;43.93;26.40;;;;;;;;;;5014132;28;20211;-75
2022/03/26 05:55:38;;;;;;;46.23;26.73;;;;;;;;;;5013480;28;20664;-75
2022/03/26 05:58:07;;;;;;;45.20;26.03;;;;;;;;;;4996284;28;20221;-75
2022/03/26 06:00:35;;;;;;;56.87;26.50;;;;;;;;;;5010670;28;20203;-75
2022/03/26 06:03:04;;;;;;;44.23;27.53;;;;;;;;;;5014834;28;20210;-75
2022/03/26 06:05:34;;;;;;;48.57;27.50;;;;;;;;;;5013558;28;20241;-75
2022/03/26 06:08:03;;;;;;;42.83;26.57;;;;;;;;;;5012932;28;20276;-74
2022/03/26 06:10:31;;;;;;;45.20;25.63;;;;;;;;;;5014360;28;20610;-75
2022/03/26 06:12:59;;;;;;;45.20;25.63;;;;;;;;;;5014295;28;20239;-75
2022/03/26 06:15:28;;;;;;;43.40;27.40;;;;;;;;;;5008937;28;20207;-75
2022/03/26 06:18:12;;;;;;;40.63;26.67;;;;;;;;;;5002899;28;20225;-74
2022/03/26 06:20:43;;;;;;;47.87;27.03;;;;;;;;;;5014073;28;20201;-75
2022/03/26 06:23:11;;;;;;;49.40;29.17;;;;;;;;;;5013623;28;20630;-74
2022/03/26 06:25:40;;;;;;;52.27;28.87;;;;;;;;;;5008779;28;20303;-75
2022/03/26 06:28:08;;;;;;;53.43;31.60;;;;;;;;;;4994271;28;20738;-74
2022/03/26 06:30:37;;;;;;;52.77;31.33;;;;;;;;;;4994314;28;20201;-74
2022/03/26 06:33:05;;;;;;;56.10;31.60;;;;;;;;;;4994841;28;20248;-74
2022/03/26 06:35:34;;;;;;;58.07;33.37;;;;;;;;;;5006871;28;20215;-75
2022/03/26 06:38:03;;;;;;;58.40;34.23;;;;;;;;;;5012969;28;20223;-74
2022/03/26 06:40:32;;;;;;;55.20;33.30;;;;;;;;;;5015068;28;20256;-74
2022/03/26 06:43:00;;;;;;;53.77;33.50;;;;;;;;;;5015559;28;20261;-74
2022/03/26 06:45:29;;;;;;;56.63;33.60;;;;;;;;;;5008612;28;20219;-75
2022/03/26 06:47:57;;;;;;;60.93;35.07;;;;;;;;;;5007410;28;20225;-74
2022/03/26 06:50:26;;;;;;;61.80;35.83;;;;;;;;;;5009345;28;20634;-74
2022/03/26 06:52:55;;;;;;;57.93;36.03;;;;;;;;;;5011286;28;20219;-74
2022/03/26 06:55:25;;;;;;;64.73;36.37;;;;;;;;;;5004745;28;20197;-74
2022/03/26 06:57:54;;;;;;;53.70;33.37;;;;;;;;;;5011644;28;20274;-74
2022/03/26 07:00:22;;;;;;;56.73;33.47;;;;;;;;;;5013484;28;20201;-74
2022/03/26 07:02:50;;;;;;;52.47;32.73;;;;;;;;;;5006832;28;20219;-75
2022/03/26 07:05:19;;;;;;;47.80;31.43;;;;;;;;;;5007599;28;20227;-74
2022/03/26 07:07:47;;;;;;;52.00;31.73;;;;;;;;;;5010240;28;20304;-75
2022/03/26 07:10:16;;;;;;;44.23;30.37;;;;;;;;;;5005610;28;20206;-74
2022/03/26 07:12:46;;;;;;;51.43;30.43;;;;;;;;;;5001148;28;20567;-74
2022/03/26 07:15:15;;;;;;;47.60;30.07;;;;;;;;;;5004937;28;20212;-75
2022/03/26 07:17:43;;;;;;;47.93;31.97;;;;;;;;;;5012767;28;20769;-75
2022/03/26 07:20:14;;;;;;;51.63;31.00;;;;;;;;;;5011793;28;20728;-74
2022/03/26 07:22:43;;;;;;;49.80;32.40;;;;;;;;;;5006357;28;20655;-75
2022/03/26 07:25:11;;;;;;;49.47;31.07;;;;;;;;;;4998049;28;20680;-75
2022/03/26 07:27:40;;;;;;;53.80;33.23;;;;;;;;;;5011418;28;20279;-75
2022/03/26 07:30:11;;;;;;;48.17;30.37;;;;;;;;;;5007854;28;20659;-75
2022/03/26 07:32:39;;;;;;;48.10;30.90;;;;;;;;;;5008805;28;20200;-74
2022/03/26 07:35:08;;;;;;;45.63;30.13;;;;;;;;;;5006388;28;20204;-74
2022/03/26 07:37:36;;;;;;;47.53;30.70;;;;;;;;;;5010966;28;20216;-74
2022/03/26 07:40:06;;;;;;;50.80;31.13;;;;;;;;;;5011096;28;20277;-75
2022/03/26 07:42:34;;;;;;;44.63;30.23;;;;;;;;;;5012634;28;21442;-75
2022/03/26 07:45:03;;;;;;;50.60;31.77;;;;;;;;;;5010482;28;20196;-75
2022/03/26 07:47:35;;;;;;;54.23;33.50;;;;;;;;;;5014360;28;20267;-75
2022/03/26 07:50:04;;;;;;;56.60;33.53;;;;;;;;;;5011970;28;20204;-74
2022/03/26 07:52:33;;;;;;;50.37;32.67;;;;;;;;;;5011286;28;20263;-75
2022/03/26 07:55:01;;;;;;;54.83;32.53;;;;;;;;;;5009001;28;20204;-75
2022/03/26 07:57:30;;;;;;;55.63;33.53;;;;;;;;;;5014794;28;20228;-75
2022/03/26 07:59:58;;;;;;;55.63;32.50;;;;;;;;;;5015719;28;20204;-75
2022/03/26 08:02:26;;;;;;;54.07;32.93;;;;;;;;;;5013755;28;20627;-75
2022/03/26 08:04:56;;;;;;;52.53;33.23;;;;;;;;;;5014921;28;20214;-74
2022/03/26 08:07:24;;;;;;;49.43;32.23;;;;;;;;;;5000674;28;20226;-75
2022/03/26 08:09:53;;;;;;;50.97;31.20;;;;;;;;;;5010003;28;20228;-75
2022/03/26 08:12:21;;;;;;;49.20;30.43;;;;;;;;;;5015335;28;20205;-75
2022/03/26 08:14:50;;;;;;;47.73;29.63;;;;;;;;;;5014606;28;20212;-75
2022/03/26 08:17:19;;;;;;;52.63;31.83;;;;;;;;;;5015139;28;20239;-75
2022/03/26 08:19:49;;;;;;;55.63;33.37;;;;;;;;;;5017290;28;20217;-75
2022/03/26 08:22:19;;;;;;;51.57;32.83;;;;;;;;;;5016219;28;20208;-75
2022/03/26 08:24:47;;;;;;;50.10;31.50;;;;;;;;;;5016344;28;20208;-75
2022/03/26 08:27:15;;;;;;;50.57;32.07;;;;;;;;;;5015542;28;20637;-75
2022/03/26 08:29:46;;;;;;;49.97;31.00;;;;;;;;;;5015235;28;20586;-75
2022/03/26 08:32:14;;;;;;;49.07;30.03;;;;;;;;;;5014530;28;20208;-74
2022/03/26 08:34:43;;;;;;;42.77;28.10;;;;;;;;;;5015739;28;20196;-74
2022/03/26 08:37:11;;;;;;;42.07;26.73;;;;;;;;;;5015072;28;20228;-75
2022/03/26 08:39:41;;;;;;;44.13;27.67;;;;;;;;;;5010085;28;20213;-74
2022/03/26 08:42:09;;;;;;;46.93;28.00;;;;;;;;;;5002255;28;20212;-75
2022/03/26 08:44:38;;;;;;;45.47;28.57;;;;;;;;;;5015266;28;20714;-75
2022/03/26 08:47:06;;;;;;;46.47;29.37;;;;;;;;;;5015452;28;20267;-75
2022/03/26 08:49:36;;;;;;;46.90;28.80;;;;;;;;;;5014280;28;20603;-75
2022/03/26 08:52:06;;;;;;;44.60;28.93;;;;;;;;;;5014076;28;20216;-75
2022/03/26 08:54:34;;;;;;;41.67;28.90;;;;;;;;;;5014831;28;20206;-75
2022/03/26 08:57:05;;;;;;;37.70;23.40;;;;;;;;;;5013143;28;20235;-75
2022/03/26 08:59:33;;;;;;;35.00;23.27;;;;;;;;;;5013473;28;20267;-76
2022/03/26 09:02:02;;;;;;;33.10;23.27;;;;;;;;;;5014564;28;20259;-75
2022/03/26 09:04:31;;;;;;;31.73;22.20;;;;;;;;;;5014915;28;20206;-75
2022/03/26 09:07:00;;;;;;;30.40;21.70;;;;;;;;;;5013371;28;20294;-75
2022/03/26 09:09:28;;;;;;;32.40;23.23;;;;;;;;;;5010053;28;20228;-76
2022/03/26 09:11:56;;;;;;;33.30;22.47;;;;;;;;;;5009957;28;20201;-75
2022/03/26 09:14:26;;;;;;;33.70;22.73;;;;;;;;;;5012396;28;20200;-75
2022/03/26 09:16:55;;;;;;;32.37;22.87;;;;;;;;;;5009099;28;20217;-75
2022/03/26 09:19:23;;;;;;;32.47;22.40;;;;;;;;;;5011568;28;20236;-75
2022/03/26 09:21:51;;;;;;;36.90;22.47;;;;;;;;;;5010316;28;20208;-75
2022/03/26 09:24:20;;;;;;;33.23;22.37;;;;;;;;;;5002218;28;20212;-75
2022/03/26 09:26:48;;;;;;;30.93;21.57;;;;;;;;;;5009572;28;20278;-75
2022/03/26 09:29:17;;;;;;;31.47;20.80;;;;;;;;;;5011315;28;20228;-75
2022/03/26 09:31:47;;;;;;;34.40;23.30;;;;;;;;;;5004276;28;20205;-75
2022/03/26 09:34:15;;;;;;;32.17;21.40;;;;;;;;;;5013620;28;20209;-75
2022/03/26 09:36:43;;;;;;;31.70;22.77;;;;;;;;;;5014809;28;20232;-74
2022/03/26 09:39:12;;;;;;;30.37;21.27;;;;;;;;;;5010208;28;20278;-75
2022/03/26 09:41:40;;;;;;;30.33;21.53;;;;;;;;;;5013433;28;20208;-75
2022/03/26 09:44:10;;;;;;;34.73;21.73;;;;;;;;;;5011733;28;20558;-75
2022/03/26 09:46:38;;;;;;;28.70;20.33;;;;;;;;;;5014978;28;20212;-75
2022/03/26 09:49:09;;;;;;;29.23;21.43;;;;;;;;;;5012587;28;20219;-74
2022/03/26 09:51:38;;;;;;;25.97;19.87;;;;;;;;;;5014072;28;20656;-75
2022/03/26 09:54:07;;;;;;;25.47;19.73;;;;;;;;;;5011202;28;20239;-75
2022/03/26 09:56:36;;;;;;;24.60;18.17;;;;;;;;;;5009495;28;20232;-75
2022/03/26 09:59:04;;;;;;;26.87;19.30;;;;;;;;;;5005611;28;20204;-75
2022/03/26 10:01:33;;;;;;;27.87;20.63;;;;;;;;;;5010613;28;20204;-74
2022/03/26 10:04:18;;;;;;;26.97;20.40;;;;;;;;;;5012383;28;20228;-75
2022/03/26 10:06:48;;;;;;;22.43;17.90;;;;;;;;;;5014717;28;20216;-75
2022/03/26 10:09:26;;;;;;;23.13;16.87;;;;;;;;;;5013998;28;20270;-75
2022/03/26 10:12:01;;;;;;;23.02;16.10;;;;;;;;;;5012401;28;20200;-74
2022/03/26 10:14:43;;;;;;;20.20;16.05;;;;;;;;;;5010864;28;20204;-74
2022/03/26 10:17:19;;;;;;;22.60;16.10;;;;;;;;;;5013810;28;20713;-75
2022/03/26 10:19:50;;;;;;;25.58;17.55;;;;;;;;;;5014147;28;20230;-75
2022/03/26 10:22:32;;;;;;;22.83;16.63;;;;;;;;;;5011817;28;20211;-75
2022/03/26 10:25:03;;;;;;;21.20;16.50;;;;;;;;;;5010278;28;20217;-75
2022/03/26 10:27:33;;;;;;;20.15;16.48;;;;;;;;;;5008658;28;20239;-75
2022/03/26 10:30:07;;;;;;;21.35;16.65;;;;;;;;;;5012877;28;20223;-74
2022/03/26 10:32:49;;;;;;;22.67;16.67;;;;;;;;;;5009669;28;20560;-75
2022/03/26 10:35:21;;;;;;;20.88;16.23;;;;;;;;;;5011694;28;20295;-76
2022/03/26 10:37:56;;;;;;;23.65;17.08;;;;;;;;;;5012268;28;20287;-75
2022/03/26 10:40:26;;;;;;;23.00;16.35;;;;;;;;;;5004497;28;20204;-75
2022/03/26 10:42:55;;;;;;;22.15;16.73;;;;;;;;;;5010132;28;20348;-75
2022/03/26 10:45:24;;;;;;;24.00;16.48;;;;;;;;;;5012557;28;20302;-75
2022/03/26 10:47:55;;;;;;;18.38;13.73;;;;;;;;;;5012871;28;20224;-75
2022/03/26 10:50:25;;;;;;;20.83;14.65;;;;;;;;;;5007618;28;20267;-75
2022/03/26 10:52:55;;;;;;;20.42;14.68;;;;;;;;;;5012460;28;20208;-75
2022/03/26 10:55:28;;;;;;;20.73;15.38;;;;;;;;;;5001557;28;20201;-75
2022/03/26 10:57:58;;;;;;;19.35;15.00;;;;;;;;;;5002695;28;20244;-74
2022/03/26 11:00:26;;;;;;;20.77;15.88;;;;;;;;;;5008180;28;20200;-75
2022/03/26 11:02:58;;;;;;;20.20;15.23;;;;;;;;;;5009831;28;20248;-75
2022/03/26 11:08:49;;;;;;;17.10;13.68;;;;;;;;;;4352598;26;20220;-75
2022/03/26 11:11:18;;;;;;;19.08;13.38;;;;;;;;;;5022252;28;20230;-75
2022/03/26 11:13:48;;;;;;;22.02;15.45;;;;;;;;;;5029940;28;20204;-75
2022/03/26 11:16:23;;;;;;;17.95;14.65;;;;;;;;;;5028578;28;20732;-75
2022/03/26 11:18:58;;;;;;;18.77;13.13;;;;;;;;;;5029277;28;20596;-75
2022/03/26 11:21:33;;;;;;;16.33;12.80;;;;;;;;;;5026800;28;20191;-75
2022/03/26 11:24:16;;;;;;;16.63;13.43;;;;;;;;;;5029536;28;20203;-74
2022/03/26 11:26:52;;;;;;;20.40;13.40;;;;;;;;;;5028062;28;20220;-75
2022/03/26 11:29:34;;;;;;;16.88;13.52;;;;;;;;;;5026868;28;20207;-74
2022/03/26 11:32:07;;;;;;;22.23;15.38;;;;;;;;;;5022497;28;20199;-74
2022/03/26 11:34:37;;;;;;;20.52;14.77;;;;;;;;;;5027043;28;20254;-74
2022/03/26 11:37:10;;;;;;;21.65;14.57;;;;;;;;;;5030962;28;20285;-75
2022/03/26 11:39:46;;;;;;;22.65;15.45;;;;;;;;;;5020153;28;20258;-75
2022/03/26 11:42:14;;;;;;;17.33;14.73;;;;;;;;;;5025864;28;20200;-76
2022/03/26 11:50:40;;;;;;;20.80;15.50;;;;;;;;;;5030371;28;20208;-75
2022/03/26 11:50:46;;;;;;;24.33;16.85;;;;;;;;;;5030083;28;20224;-73
2022/03/26 11:53:34;;;;;;;24.65;16.63;;;;;;;;;;5021707;28;20572;-75
2022/03/26 11:56:05;;;;;;;24.50;16.27;;;;;;;;;;5020715;28;20666;-74
2022/03/26 11:58:34;;;;;;;18.88;15.77;;;;;;;;;;5022868;28;20227;-75
2022/03/26 12:01:08;;;;;;;51.28;20.88;;;;;;;;;;5031537;28;20207;-73
2022/03/26 12:03:43;;;;;;;21.83;16.95;;;;;;;;;;5031269;28;20211;-74
2022/03/26 12:06:38;;;;;;;22.58;16.95;;;;;;;;;;5028822;28;20204;-74
2022/03/26 12:09:06;;;;;;;22.60;17.42;;;;;;;;;;5028362;28;20212;-73
2022/03/26 12:11:36;;;;;;;23.23;16.38;;;;;;;;;;5023057;28;20215;-74
2022/03/26 12:14:05;;;;;;;20.30;16.08;;;;;;;;;;5031411;28;20619;-74
2022/03/26 12:16:52;;;;;;;19.63;15.98;;;;;;;;;;5031010;28;20258;-73
2022/03/26 12:19:36;;;;;;;20.52;15.73;;;;;;;;;;5020312;28;20199;-73
2022/03/26 12:22:18;;;;;;;20.55;15.13;;;;;;;;;;5025594;28;20298;-73
2022/03/26 12:24:47;;;;;;;14.10;12.55;;;;;;;;;;5016583;28;20205;-74
2022/03/26 12:27:17;;;;;;;17.63;13.00;;;;;;;;;;5032180;28;20227;-72
2022/03/26 12:29:45;;;;;;;15.13;13.20;;;;;;;;;;5035813;28;20200;-74
2022/03/26 12:32:14;;;;;;;17.83;13.43;;;;;;;;;;5030882;28;20621;-75
2022/03/26 12:34:55;;;;;;;14.65;13.10;;;;;;;;;;5016264;28;20216;-74
2022/03/26 12:37:24;;;;;;;16.55;12.93;;;;;;;;;;5016413;28;20278;-73
2022/03/26 12:39:53;;;;;;;17.08;13.13;;;;;;;;;;5031809;28;20606;-73
2022/03/26 12:42:23;;;;;;;13.38;11.68;;;;;;;;;;5030874;28;20229;-73
2022/03/26 12:44:52;;;;;;;14.90;12.00;;;;;;;;;;5016152;28;20216;-74
2022/03/26 12:47:22;;;;;;;14.95;12.15;;;;;;;;;;5029062;28;20220;-74
2022/03/26 12:49:51;;;;;;;16.30;12.07;;;;;;;;;;5034586;28;20204;-73
2022/03/26 12:52:20;;;;;;;15.13;12.20;;;;;;;;;;5030695;28;20286;-73
2022/03/26 12:54:53;;;;;;;14.38;12.07;;;;;;;;;;5035568;28;20207;-73
2022/03/26 12:57:23;;;;;;;14.82;11.55;;;;;;;;;;5035505;28;20224;-73
2022/03/26 12:59:51;;;;;;;17.35;11.23;;;;;;;;;;5034744;28;20226;-73
2022/03/26 13:02:20;;;;;;;15.30;11.38;;;;;;;;;;5034860;28;20200;-73
2022/03/26 13:04:52;;;;;;;13.80;10.95;;;;;;;;;;5034544;28;20203;-73
2022/03/26 13:07:24;;;;;;;13.43;10.90;;;;;;;;;;5028007;28;20752;-73
2022/03/26 13:09:56;;;;;;;15.00;11.30;;;;;;;;;;5034640;28;20200;-74
2022/03/26 13:12:27;;;;;;;12.55;10.35;;;;;;;;;;5032513;28;20227;-73
2022/03/26 13:14:56;;;;;;;13.77;11.13;;;;;;;;;;5033589;28;20208;-73
2022/03/26 13:17:25;;;;;;;13.13;11.15;;;;;;;;;;5031104;28;20224;-73
2022/03/26 13:19:57;;;;;;;15.77;11.25;;;;;;;;;;5041102;28;20195;-72
2022/03/26 13:22:27;;;;;;;14.63;11.30;;;;;;;;;;5032808;28;20203;-73
2022/03/26 13:24:57;;;;;;;15.98;12.00;;;;;;;;;;5031988;28;20231;-73
2022/03/26 13:27:27;;;;;;;15.52;11.68;;;;;;;;;;5034799;28;20220;-73
2022/03/26 13:30:08;;;;;;;14.27;11.38;;;;;;;;;;5031764;28;20212;-73
2022/03/26 13:32:37;;;;;;;15.75;12.88;;;;;;;;;;5035661;28;20226;-73
2022/03/26 13:35:06;;;;;;;14.65;12.45;;;;;;;;;;5035775;28;20200;-72
2022/03/26 13:37:35;;;;;;;17.48;12.90;;;;;;;;;;5034240;28;20215;-73
2022/03/26 13:40:03;;;;;;;16.73;13.25;;;;;;;;;;5032066;28;20211;-73
2022/03/26 13:42:39;;;;;;;16.17;12.77;;;;;;;;;;5036622;28;20543;-73
2022/03/26 13:45:09;;;;;;;16.98;13.57;;;;;;;;;;5034190;28;20299;-73
2022/03/26 13:47:38;;;;;;;15.75;13.07;;;;;;;;;;4685075;28;10000226;-73
2022/03/26 13:50:08;;;;;;;16.85;13.50;;;;;;;;;;5030304;28;20622;-73
2022/03/26 13:52:37;;;;;;;19.80;13.27;;;;;;;;;;5031119;28;20231;-73
2022/03/26 13:55:24;;;;;;;17.00;13.52;;;;;;;;;;5027927;28;20258;-73
2022/03/26 13:57:54;;;;;;;16.48;13.98;;;;;;;;;;5028031;28;20266;-74
2022/03/26 14:00:23;;;;;;;19.20;15.30;;;;;;;;;;5029124;28;20207;-73
2022/03/26 14:02:53;;;;;;;21.98;15.13;;;;;;;;;;5026262;28;20237;-73
2022/03/26 14:05:26;;;;;;;17.73;14.68;;;;;;;;;;5029410;28;20200;-73
2022/03/26 14:07:55;;;;;;;19.63;15.57;;;;;;;;;;5027252;28;20597;-73
2022/03/26 14:10:31;;;;;;;18.58;15.05;;;;;;;;;;5026610;28;20209;-73
2022/03/26 14:13:00;;;;;;;15.73;13.15;;;;;;;;;;5028266;28;20219;-74
2022/03/26 14:15:29;;;;;;;18.80;13.93;;;;;;;;;;5028809;28;20196;-73
2022/03/26 14:17:58;;;;;;;18.38;14.43;;;;;;;;;;5023217;28;20220;-73
2022/03/26 14:20:27;;;;;;;17.63;14.00;;;;;;;;;;5021298;28;20200;-73
2022/03/26 14:22:58;;;;;;;19.23;14.40;;;;;;;;;;5026428;28;20203;-73
2022/03/26 14:25:29;;;;;;;16.65;13.93;;;;;;;;;;5029853;28;21348;-74
2022/03/26 14:27:57;;;;;;;19.83;15.90;;;;;;;;;;5027549;28;20227;-74
2022/03/26 14:30:27;;;;;;;19.15;15.43;;;;;;;;;;5020038;28;20203;-73
2022/03/26 14:32:57;;;;;;;17.08;14.88;;;;;;;;;;5028392;28;20300;-74
2022/03/26 14:35:26;;;;;;;17.73;14.70;;;;;;;;;;5027928;28;20204;-74
2022/03/26 14:37:57;;;;;;;17.70;13.52;;;;;;;;;;5032986;28;20223;-73